Time;durP1;ratioP1;P1;durP2;ratioP2;P2;SDS_P1;SDS_P2;PMS_P1;PMS_P2;Temp;Humidity;BMP_temperature;BMP_pressure;BME280_temperature;BME280_humidity;BME280_pressure;Samples;Min_cycle;Max_cycle;Signal;HPM_P1;HPM_P2
2021/07/17 00:00:25;;;;;;;47.00;23.65;;;;;;;14.13;95.91;99693.09;5049061;28;20013;-66
2021/07/17 00:02:51;;;;;;;47.80;25.77;;;;;;;14.08;96.29;99694.94;5048736;28;20025;-66
2021/07/17 00:05:18;;;;;;;44.58;25.38;;;;;;;14.08;96.85;99688.78;5049514;28;20012;-66
2021/07/17 00:07:45;;;;;;;59.55;27.73;;;;;;;14.09;96.87;99690.53;5047050;28;20038;-66
2021/07/17 00:10:41;;;;;;;49.17;26.55;;;;;;;14.10;96.87;99706.38;5045945;28;20316;-66
2021/07/17 00:13:07;;;;;;;48.80;25.88;;;;;;;14.12;96.82;99690.47;5042933;28;20117;-66
2021/07/17 00:15:33;;;;;;;48.50;24.30;;;;;;;14.08;96.88;99694.09;5045881;28;20320;-66
2021/07/17 00:17:58;;;;;;;48.00;23.65;;;;;;;13.93;96.13;99694.31;5048858;28;20017;-66
2021/07/17 00:20:24;;;;;;;41.95;23.60;;;;;;;13.89;96.40;99676.75;5048396;28;20190;-66
2021/07/17 00:22:50;;;;;;;39.45;24.13;;;;;;;13.87;96.47;99683.84;5047846;28;20021;-66
2021/07/17 00:25:17;;;;;;;43.75;23.85;;;;;;;13.87;96.70;99676.78;5048026;28;20201;-66
2021/07/17 00:27:44;;;;;;;40.15;22.08;;;;;;;13.80;95.89;99687.47;5053610;28;20021;-66
2021/07/17 00:30:11;;;;;;;52.10;23.40;;;;;;;13.74;96.39;99680.50;5059639;28;20096;-66
2021/07/17 00:32:37;;;;;;;49.28;23.23;;;;;;;13.72;96.10;99676.13;5061877;28;20304;-66
2021/07/17 00:35:05;;;;;;;42.22;24.63;;;;;;;13.69;96.22;99685.00;5049009;28;20075;-66
2021/07/17 00:37:30;;;;;;;34.53;20.42;;;;;;;13.64;96.31;99683.31;5057042;28;20074;-66
2021/07/17 00:39:56;;;;;;;46.72;24.55;;;;;;;13.70;96.36;99691.16;5060475;28;20247;-66
2021/07/17 00:42:21;;;;;;;46.58;23.95;;;;;;;13.66;96.41;99677.09;5061903;28;20343;-66
2021/07/17 00:44:47;;;;;;;44.50;23.65;;;;;;;13.66;96.37;99686.78;5065253;28;20036;-66
2021/07/17 00:47:15;;;;;;;47.65;24.58;;;;;;;13.58;96.12;99678.13;5054411;28;20028;-66
2021/07/17 00:49:40;;;;;;;49.65;26.65;;;;;;;13.61;96.13;99680.72;5053683;28;20259;-66
2021/07/17 00:52:05;;;;;;;45.72;24.45;;;;;;;13.57;95.97;99679.03;5060314;28;20071;-66
2021/07/17 00:54:32;;;;;;;48.08;24.58;;;;;;;13.57;96.06;99686.97;5059648;28;20025;-66
2021/07/17 00:57:00;;;;;;;44.35;25.33;;;;;;;13.53;96.07;99682.59;5060546;28;20029;-66
2021/07/17 00:59:28;;;;;;;41.78;22.60;;;;;;;13.50;96.44;99688.81;5063078;28;20021;-66
2021/07/17 01:01:55;;;;;;;49.30;25.33;;;;;;;13.44;96.94;99749.72;5059690;28;20055;-66
2021/07/17 01:04:21;;;;;;;45.10;23.77;;;;;;;13.47;97.21;99732.91;5047177;28;20021;-66
2021/07/17 01:06:48;;;;;;;46.10;25.23;;;;;;;13.48;97.01;99732.91;5053600;28;20028;-66
2021/07/17 01:09:14;;;;;;;47.25;25.70;;;;;;;13.54;97.15;99732.81;5061609;28;20017;-66
2021/07/17 01:11:40;;;;;;;51.47;24.02;;;;;;;13.50;96.78;99719.66;5059656;28;20047;-66
2021/07/17 01:14:06;;;;;;;50.55;24.25;;;;;;;13.49;96.59;99723.22;5061480;28;20308;-66
2021/07/17 01:16:32;;;;;;;41.83;23.77;;;;;;;13.53;96.86;99709.91;5059835;28;20075;-66
2021/07/17 01:18:58;;;;;;;45.63;21.85;;;;;;;13.47;96.31;99712.66;5061130;28;20033;-66
2021/07/17 01:21:24;;;;;;;32.20;20.67;;;;;;;13.43;95.86;99708.31;5059680;28;20068;-66
2021/07/17 01:23:49;;;;;;;37.20;22.45;;;;;;;13.38;95.90;99698.69;5055183;28;20030;-66
2021/07/17 01:26:16;;;;;;;34.15;21.35;;;;;;;13.40;96.13;99696.88;5048508;28;20292;-66
2021/07/17 01:28:41;;;;;;;31.27;20.63;;;;;;;13.32;96.05;99702.25;5058370;28;20032;-66
2021/07/17 01:31:07;;;;;;;44.00;21.15;;;;;;;13.34;96.06;99703.13;5061192;28;20021;-66
2021/07/17 01:33:34;;;;;;;37.15;21.08;;;;;;;13.37;96.16;99702.22;5047825;28;20022;-66
2021/07/17 01:35:59;;;;;;;39.17;20.73;;;;;;;13.20;95.76;99694.53;5046733;28;20220;-66
2021/07/17 01:38:25;;;;;;;33.13;19.17;;;;;;;13.14;95.27;99699.00;5047783;28;20025;-66
2021/07/17 01:40:51;;;;;;;30.77;18.63;;;;;;;13.10;95.47;99689.38;5046650;28;20036;-66
2021/07/17 01:43:16;;;;;;;38.15;21.42;;;;;;;13.07;96.12;99694.69;5046593;28;20021;-66
2021/07/17 01:45:43;;;;;;;36.13;19.73;;;;;;;13.03;96.16;99750.22;5058805;28;20024;-66
2021/07/17 01:48:10;;;;;;;43.22;20.15;;;;;;;13.02;96.16;99737.91;5059156;28;20032;-66
2021/07/17 01:50:37;;;;;;;34.92;19.13;;;;;;;13.06;95.84;99722.03;5050558;28;20080;-66
2021/07/17 01:53:05;;;;;;;26.48;16.58;;;;;;;12.92;95.85;99699.22;5046503;28;20300;-66
2021/07/17 01:55:30;;;;;;;33.22;17.98;;;;;;;12.91;95.64;99697.47;5047114;28;20047;-66
2021/07/17 01:57:57;;;;;;;34.72;20.52;;;;;;;12.95;95.74;99696.53;5046388;28;20320;-66
2021/07/17 02:00:24;;;;;;;33.53;21.27;;;;;;;12.94;96.29;99692.16;5056745;28;20028;-66
2021/07/17 02:02:50;;;;;;;28.13;18.27;;;;;;;12.93;95.52;99690.41;5047401;28;20328;-66
2021/07/17 02:05:17;;;;;;;33.45;18.73;;;;;;;12.88;95.47;99686.94;5045769;28;20055;-66
2021/07/17 02:07:46;;;;;;;35.08;20.38;;;;;;;12.78;95.90;99674.72;5047159;28;20064;-67
2021/07/17 02:10:34;;;;;;;29.42;18.65;;;;;;;12.80;95.87;99715.22;5051375;28;20016;-67
2021/07/17 02:13:05;;;;;;;25.10;15.57;;;;;;;12.73;95.52;99739.97;5060202;28;20047;-67
2021/07/17 02:16:01;;;;;;;29.40;17.17;;;;;;;12.64;95.63;99777.03;5046204;28;20031;-67
2021/07/17 02:18:33;;;;;;;36.78;20.50;;;;;;;12.65;96.21;99791.09;5042168;28;20212;-67
2021/07/17 02:21:04;;;;;;;29.98;18.70;;;;;;;12.71;96.38;99836.84;5062670;28;20021;-67
2021/07/17 02:23:29;;;;;;;29.85;15.70;;;;;;;12.67;95.81;99850.97;5050056;28;20071;-66
2021/07/17 02:25:55;;;;;;;44.88;18.80;;;;;;;12.69;95.70;99864.19;5046183;28;20092;-66
2021/07/17 02:28:20;;;;;;;60.33;21.33;;;;;;;12.65;96.09;99862.44;5051683;28;20220;-66
2021/07/17 02:30:48;;;;;;;42.65;20.80;;;;;;;12.71;96.47;99884.41;5058859;28;20021;-67
2021/07/17 02:33:13;;;;;;;39.80;18.08;;;;;;;12.67;96.15;99895.88;5060356;28;20025;-67
2021/07/17 02:35:38;;;;;;;28.52;17.73;;;;;;;12.68;95.52;99945.19;5052635;28;20025;-67
2021/07/17 02:38:04;;;;;;;30.42;17.45;;;;;;;12.65;95.25;99958.41;5046042;28;20022;-66
2021/07/17 02:40:29;;;;;;;32.22;17.13;;;;;;;12.57;94.97;99962.84;5045909;28;20022;-66
2021/07/17 02:42:55;;;;;;;24.70;16.63;;;;;;;12.55;95.10;99988.41;5043557;28;20029;-66
2021/07/17 02:45:20;;;;;;;30.08;18.52;;;;;;;12.49;95.07;99999.00;5044519;28;20021;-66
2021/07/17 02:47:45;;;;;;;28.50;15.70;;;;;;;12.56;95.18;100016.56;5046200;28;20264;-66
2021/07/17 02:50:11;;;;;;;30.20;16.23;;;;;;;12.52;95.03;100062.38;5045904;28;20022;-66
2021/07/17 02:52:37;;;;;;;36.10;19.35;;;;;;;12.50;95.17;100048.28;5047002;28;20070;-66
2021/07/17 02:55:05;;;;;;;26.30;16.45;;;;;;;12.48;95.55;100065.94;5045913;28;20049;-66
2021/07/17 02:57:30;;;;;;;28.58;17.42;;;;;;;12.52;95.43;100083.50;5046303;28;20021;-66
2021/07/17 02:59:56;;;;;;;26.98;17.15;;;;;;;12.54;95.28;100097.59;5046371;28;20343;-66
2021/07/17 03:02:22;;;;;;;33.67;17.95;;;;;;;12.47;95.28;100111.69;5048595;28;20029;-66
2021/07/17 03:04:48;;;;;;;30.70;16.85;;;;;;;12.37;94.84;100149.56;5059762;28;20025;-66
2021/07/17 03:07:13;;;;;;;31.90;17.73;;;;;;;12.38;95.10;100143.44;5058048;28;20130;-66
2021/07/17 03:09:39;;;;;;;41.97;17.85;;;;;;;12.35;95.67;100151.38;5052309;28;20085;-66
2021/07/17 03:12:06;;;;;;;44.20;19.60;;;;;;;12.38;95.69;100159.28;5046363;28;20190;-66
2021/07/17 03:14:31;;;;;;;23.77;15.95;;;;;;;12.37;95.51;100183.91;5046001;28;20094;-66
2021/07/17 03:16:57;;;;;;;21.33;15.50;;;;;;;12.28;94.82;100194.47;5054629;28;20029;-66
2021/07/17 03:19:22;;;;;;;24.33;15.55;;;;;;;12.27;95.15;100198.00;5061851;28;20028;-66
2021/07/17 03:21:48;;;;;;;26.00;15.35;;;;;;;12.29;95.35;100227.94;5063059;28;20033;-66
2021/07/17 03:24:13;;;;;;;28.55;16.52;;;;;;;12.32;95.69;100243.78;5063084;28;20307;-66
2021/07/17 03:26:38;;;;;;;38.92;17.88;;;;;;;12.27;95.37;100274.56;5060829;28;20033;-66
2021/07/17 03:29:04;;;;;;;30.52;18.15;;;;;;;12.25;95.12;100271.03;5051451;28;20025;-66
2021/07/17 03:31:31;;;;;;;30.25;16.13;;;;;;;12.19;95.14;100300.09;5052488;28;20028;-66
2021/07/17 03:33:57;;;;;;;35.30;18.05;;;;;;;12.13;95.04;100308.03;5048975;28;20021;-66
2021/07/17 03:36:23;;;;;;;33.75;17.55;;;;;;;12.16;95.68;100265.78;5050116;28;20316;-66
2021/07/17 03:38:49;;;;;;;34.42;18.80;;;;;;;12.16;95.37;100379.31;5048927;28;20104;-66
2021/07/17 03:41:15;;;;;;;36.17;17.95;;;;;;;12.21;95.04;100369.63;5049982;28;20025;-66
2021/07/17 03:43:40;;;;;;;32.50;16.55;;;;;;;12.22;94.91;100336.19;5048790;28;20052;-66
2021/07/17 03:46:05;;;;;;;46.42;18.70;;;;;;;12.22;94.86;100337.03;5048791;28;20351;-66
2021/07/17 03:48:31;;;;;;;48.67;19.05;;;;;;;12.23;95.05;100353.78;5049889;28;20123;-66
2021/07/17 03:50:56;;;;;;;31.83;16.38;;;;;;;12.21;94.81;100335.28;5048685;28;20021;-66
2021/07/17 03:53:22;;;;;;;22.88;14.57;;;;;;;12.25;94.50;100363.44;5048730;28;20021;-66
2021/07/17 03:55:47;;;;;;;32.47;15.65;;;;;;;12.27;94.41;100334.41;5061652;28;20377;-66
2021/07/17 03:58:12;;;;;;;32.33;16.10;;;;;;;12.26;94.66;100365.22;5058165;28;20340;-66
2021/07/17 04:00:38;;;;;;;24.10;14.60;;;;;;;12.20;93.83;100365.22;5059727;28;20067;-66
2021/07/17 04:03:04;;;;;;;31.02;17.08;;;;;;;12.20;94.41;100385.44;5061707;28;20328;-66
2021/07/17 04:05:30;;;;;;;42.92;20.73;;;;;;;12.11;94.78;100391.59;5062355;28;20029;-66
2021/07/17 04:07:56;;;;;;;28.75;16.00;;;;;;;12.25;94.51;100452.34;5060771;28;20243;-66
2021/07/17 04:10:21;;;;;;;31.13;18.00;;;;;;;12.23;94.34;100422.41;5063050;28;20021;-66
2021/07/17 04:12:47;;;;;;;30.73;17.70;;;;;;;12.23;94.42;100481.41;5053209;28;20021;-66
2021/07/17 04:15:12;;;;;;;26.08;16.98;;;;;;;12.25;94.56;100495.47;5048503;28;20028;-66
2021/07/17 04:17:38;;;;;;;23.08;14.70;;;;;;;12.35;94.09;100476.16;5049342;28;20021;-66
2021/07/17 04:20:09;;;;;;;23.23;14.52;;;;;;;12.41;93.85;100506.97;5046992;28;20029;-66
2021/07/17 04:22:35;;;;;;;25.73;14.95;;;;;;;12.34;93.51;100521.03;5045697;28;20084;-66
2021/07/17 04:25:02;;;;;;;31.45;17.02;;;;;;;12.23;94.11;100523.63;5045749;28;20372;-66
2021/07/17 04:27:27;;;;;;;32.33;18.58;;;;;;;12.36;94.13;100461.19;5045662;28;20017;-66
2021/07/17 04:29:53;;;;;;;33.45;18.95;;;;;;;12.43;94.19;100470.88;5056052;28;20343;-66
2021/07/17 04:32:18;;;;;;;22.58;14.35;;;;;;;12.47;93.85;100473.53;5061824;28;20017;-66
2021/07/17 04:34:44;;;;;;;20.83;14.30;;;;;;;12.59;93.72;100607.38;5062050;28;20391;-66
2021/07/17 04:37:14;;;;;;;22.88;13.43;;;;;;;12.72;93.09;100540.53;5046694;28;20035;-66
2021/07/17 04:39:39;;;;;;;32.05;16.65;;;;;;;12.89;93.48;100584.63;5045427;28;20021;-66
2021/07/17 04:42:05;;;;;;;37.70;18.80;;;;;;;12.96;93.37;100541.44;5045330;28;20325;-66
2021/07/17 04:44:30;;;;;;;29.45;18.83;;;;;;;13.16;94.13;100545.91;5045361;28;20085;-66
2021/07/17 04:46:56;;;;;;;32.92;18.13;;;;;;;13.24;93.61;100589.09;5050648;28;20032;-66
2021/07/17 04:49:21;;;;;;;24.77;16.85;;;;;;;13.47;93.41;100608.50;5061278;28;20212;-66
2021/07/17 04:51:47;;;;;;;26.42;17.42;;;;;;;13.68;92.57;100724.94;5060295;28;20025;-66
2021/07/17 04:54:12;;;;;;;25.95;15.55;;;;;;;13.94;91.81;100675.53;5060581;28;20021;-66
2021/07/17 04:56:38;;;;;;;34.08;18.75;;;;;;;14.25;91.29;100624.34;5060852;28;20017;-66
2021/07/17 04:59:03;;;;;;;23.10;12.40;;;;;;;14.37;88.90;100523.63;5060999;28;20368;-66
2021/07/17 05:01:28;;;;;;;26.92;14.70;;;;;;;14.60;88.99;100511.13;5059850;28;20021;-66
2021/07/17 05:03:54;;;;;;;33.13;14.50;;;;;;;14.99;88.04;100484.34;5061419;28;20066;-66
2021/07/17 05:06:19;;;;;;;20.77;13.18;;;;;;;15.17;86.22;100452.38;5061276;28;20062;-66
2021/07/17 05:08:44;;;;;;;28.80;15.27;;;;;;;14.81;87.22;100436.78;5059599;28;20044;-66
2021/07/17 05:11:11;;;;;;;33.47;16.48;;;;;;;14.90;87.49;100452.59;5060488;28;20267;-66
2021/07/17 05:13:36;;;;;;;28.35;15.93;;;;;;;15.36;86.27;100442.47;5061006;28;20080;-66
2021/07/17 05:16:02;;;;;;;30.85;15.50;;;;;;;15.69;84.92;100442.16;5061164;28;20025;-66
2021/07/17 05:18:27;;;;;;;29.50;14.85;;;;;;;15.66;85.16;100420.97;5059609;28;21165;-66
2021/07/17 05:20:53;;;;;;;32.55;15.80;;;;;;;15.47;85.97;100399.03;5061225;28;20044;-66
2021/07/17 05:23:18;;;;;;;26.33;15.70;;;;;;;15.73;85.43;100407.59;5062871;28;20025;-66
2021/07/17 05:25:44;;;;;;;29.13;17.40;;;;;;;15.90;85.40;100413.56;5064509;28;20094;-66
2021/07/17 05:28:10;;;;;;;25.92;15.50;;;;;;;16.31;84.15;100428.97;5064511;28;20247;-66
2021/07/17 05:30:36;;;;;;;29.92;16.80;;;;;;;16.23;84.76;100420.22;5064450;28;20063;-66
2021/07/17 05:33:01;;;;;;;24.50;16.33;;;;;;;16.27;84.90;100396.25;5060942;28;20038;-66
2021/07/17 05:35:30;;;;;;;32.40;18.98;;;;;;;15.94;86.05;100372.78;5063553;28;20083;-66
2021/07/17 05:37:57;;;;;;;33.97;18.65;;;;;;;15.77;87.52;100361.53;5063645;28;20021;-66
2021/07/17 05:40:22;;;;;;;29.10;17.25;;;;;;;15.68;88.48;100364.28;5051119;28;20021;-66
2021/07/17 05:42:48;;;;;;;31.98;20.30;;;;;;;15.55;89.63;100335.25;5047649;28;20091;-66
2021/07/17 05:45:14;;;;;;;33.05;19.77;;;;;;;15.76;89.66;100343.81;5050016;28;20025;-66
2021/07/17 05:47:39;;;;;;;39.70;22.20;;;;;;;15.96;88.88;100349.75;5047687;28;20025;-66
2021/07/17 05:50:05;;;;;;;38.58;19.63;;;;;;;16.16;88.78;100358.31;5046543;28;20017;-66
2021/07/17 05:52:31;;;;;;;34.17;19.75;;;;;;;16.29;88.69;100365.19;5046528;28;20091;-66
2021/07/17 05:54:56;;;;;;;42.20;20.80;;;;;;;16.41;89.31;100383.63;5047632;28;20029;-66
2021/07/17 05:57:22;;;;;;;26.88;18.15;;;;;;;16.61;89.60;100418.78;5046397;28;20312;-66
2021/07/17 05:59:47;;;;;;;34.53;18.98;;;;;;;16.59;89.72;100382.50;5044040;28;20028;-66
2021/07/17 06:02:13;;;;;;;34.05;20.02;;;;;;;16.45;89.83;100364.09;5043973;28;20027;-66
2021/07/17 06:04:38;;;;;;;31.80;20.38;;;;;;;16.34;90.39;100350.06;5043916;28;20047;-66
2021/07/17 06:07:04;;;;;;;36.65;22.02;;;;;;;16.31;91.29;100350.13;5043828;28;20064;-66
2021/07/17 06:09:29;;;;;;;47.50;23.25;;;;;;;16.21;91.09;100340.53;5044030;28;20025;-66
2021/07/17 06:11:54;;;;;;;37.97;21.13;;;;;;;16.14;90.93;100328.22;5043953;28;20105;-66
2021/07/17 06:14:20;;;;;;;40.92;23.05;;;;;;;16.27;91.88;100331.59;5046425;28;20063;-66
2021/07/17 06:16:45;;;;;;;47.03;23.95;;;;;;;16.32;91.29;100332.38;5047323;28;20092;-66
2021/07/17 06:19:11;;;;;;;38.92;25.05;;;;;;;16.30;91.32;100315.59;5047344;28;20096;-66
2021/07/17 06:21:37;;;;;;;39.53;24.05;;;;;;;16.31;91.75;100326.19;5046038;28;20260;-66
2021/07/17 06:24:03;;;;;;;41.42;24.98;;;;;;;16.36;91.99;100327.00;5047328;28;20036;-66
2021/07/17 06:26:28;;;;;;;42.92;25.95;;;;;;;16.47;91.72;100322.44;5043782;28;20048;-66
2021/07/17 06:28:54;;;;;;;40.95;25.27;;;;;;;16.60;92.05;100331.97;5043784;28;20092;-66
2021/07/17 06:31:19;;;;;;;46.72;24.98;;;;;;;16.82;91.52;100333.34;5043775;28;20025;-66
2021/07/17 06:33:46;;;;;;;44.95;26.10;;;;;;;16.95;92.19;100332.22;5043753;28;20212;-66
2021/07/17 06:36:12;;;;;;;54.35;29.15;;;;;;;16.93;91.44;100347.31;5057332;28;20366;-66
2021/07/17 06:38:37;;;;;;;44.25;27.38;;;;;;;16.95;91.25;100332.22;5060126;28;20013;-66
2021/07/17 06:41:03;;;;;;;55.60;28.65;;;;;;;17.06;91.45;100322.25;5058779;28;20032;-66
2021/07/17 06:43:29;;;;;;;55.05;28.55;;;;;;;17.09;91.67;100318.69;5059847;28;20017;-66
2021/07/17 06:45:55;;;;;;;57.55;28.30;;;;;;;17.11;91.36;100331.03;5047058;28;20083;-66
2021/07/17 06:48:20;;;;;;;57.15;28.95;;;;;;;17.18;91.72;100327.34;5047050;28;20320;-66
2021/07/17 06:50:48;;;;;;;43.60;25.77;;;;;;;17.22;91.20;100323.72;5043565;28;20236;-67
2021/07/17 06:53:14;;;;;;;53.42;28.75;;;;;;;17.30;91.19;100336.00;5046711;28;20013;-67
2021/07/17 06:55:39;;;;;;;51.78;26.83;;;;;;;17.32;90.55;100323.53;5047378;28;20021;-67
2021/07/17 06:58:05;;;;;;;53.92;27.38;;;;;;;17.33;90.36;100320.00;5047357;28;20027;-67
2021/07/17 07:00:33;;;;;;;55.60;30.00;;;;;;;17.25;90.59;100296.19;5047300;28;20059;-67
2021/07/17 07:02:59;;;;;;;54.00;27.77;;;;;;;17.33;90.09;100304.88;5047104;28;20022;-67
2021/07/17 07:05:25;;;;;;;60.58;28.35;;;;;;;17.45;90.67;100310.00;5047234;28;20198;-67
2021/07/17 07:07:50;;;;;;;51.50;27.70;;;;;;;17.52;90.77;100300.09;5047010;28;20045;-67
2021/07/17 07:10:15;;;;;;;47.88;25.27;;;;;;;17.62;89.94;100296.34;5049357;28;20092;-67
2021/07/17 07:12:41;;;;;;;50.90;27.88;;;;;;;17.69;89.81;100288.19;5064239;28;20020;-67
2021/07/17 07:15:08;;;;;;;50.75;26.67;;;;;;;17.79;89.19;100287.06;5062638;28;20021;-67
2021/07/17 07:17:35;;;;;;;46.80;24.33;;;;;;;17.87;88.96;100286.91;5047007;28;20054;-67
2021/07/17 07:20:00;;;;;;;48.95;24.80;;;;;;;18.06;88.90;100293.53;5057308;28;20017;-67
2021/07/17 07:22:26;;;;;;;53.72;27.50;;;;;;;18.12;88.31;100296.06;5064287;28;20048;-67
2021/07/17 07:24:51;;;;;;;58.33;27.27;;;;;;;18.18;87.67;100287.91;5065114;28;20032;-67
2021/07/17 07:27:17;;;;;;;47.15;25.95;;;;;;;18.35;88.46;100291.09;5063311;28;20052;-67
2021/07/17 07:29:42;;;;;;;49.50;26.50;;;;;;;18.29;87.53;100275.22;5066271;28;20330;-67
2021/07/17 07:32:08;;;;;;;55.90;26.10;;;;;;;18.53;86.23;100287.97;5066314;28;20020;-67
2021/07/17 07:34:33;;;;;;;37.10;22.90;;;;;;;18.66;86.29;100292.06;5066485;28;20316;-67
2021/07/17 07:36:59;;;;;;;44.90;25.33;;;;;;;18.59;86.55;100285.16;5052724;28;20017;-67
2021/07/17 07:39:24;;;;;;;48.40;25.17;;;;;;;18.55;86.35;100294.16;5046699;28;20028;-66
2021/07/17 07:41:49;;;;;;;55.50;28.20;;;;;;;18.52;87.44;100289.78;5046489;28;20048;-68
2021/07/17 07:44:15;;;;;;;44.78;25.75;;;;;;;18.56;86.82;100290.56;5046536;28;20027;-68
2021/07/17 07:46:40;;;;;;;57.25;26.83;;;;;;;18.69;86.91;100292.00;5046502;28;20021;-68
2021/07/17 07:49:07;;;;;;;50.22;25.67;;;;;;;18.66;85.85;100286.75;5046394;28;20021;-68
2021/07/17 07:51:33;;;;;;;53.22;26.17;;;;;;;18.62;85.55;100279.75;5058014;28;20017;-68
2021/07/17 07:53:59;;;;;;;50.28;27.08;;;;;;;18.76;86.59;100298.91;5053228;28;20275;-68
2021/07/17 07:56:24;;;;;;;54.90;26.52;;;;;;;18.71;86.99;100296.41;5052106;28;20017;-68
2021/07/17 07:58:49;;;;;;;51.65;26.85;;;;;;;18.61;85.84;100299.34;5050977;28;20313;-68
2021/07/17 08:01:15;;;;;;;55.65;26.75;;;;;;;18.44;86.19;100281.09;5051372;28;20088;-67
2021/07/17 08:03:40;;;;;;;52.95;26.92;;;;;;;18.54;86.28;100287.06;5048919;28;20045;-67
2021/07/17 08:06:06;;;;;;;57.10;27.73;;;;;;;18.54;87.46;100276.41;5049733;28;20259;-67
2021/07/17 08:08:31;;;;;;;57.90;26.83;;;;;;;18.55;87.18;100278.16;5057129;28;20041;-67
2021/07/17 08:10:58;;;;;;;46.22;26.95;;;;;;;18.50;86.19;100280.03;5061158;28;20084;-67
2021/07/17 08:13:23;;;;;;;48.58;27.15;;;;;;;18.57;87.03;100266.50;5062878;28;20017;-67
2021/07/17 08:15:50;;;;;;;56.03;28.27;;;;;;;18.59;87.41;100266.47;5061923;28;20021;-67
2021/07/17 08:18:16;;;;;;;46.45;26.33;;;;;;;18.58;87.42;100267.41;5060513;28;21046;-67
2021/07/17 08:20:41;;;;;;;57.70;26.60;;;;;;;18.60;86.85;100332.22;5048484;28;20021;-67
2021/07/17 08:23:07;;;;;;;55.83;27.50;;;;;;;18.72;85.73;100323.94;5059334;28;20034;-67
2021/07/17 08:25:32;;;;;;;48.10;25.60;;;;;;;18.85;85.66;100296.00;5060419;28;20084;-67
2021/07/17 08:27:58;;;;;;;50.70;25.30;;;;;;;18.80;86.13;100297.94;5051882;28;20205;-67
2021/07/17 08:30:23;;;;;;;49.22;25.17;;;;;;;18.85;85.90;100288.00;5048906;28;20017;-67
2021/07/17 08:32:50;;;;;;;46.88;25.38;;;;;;;19.02;86.78;100291.97;5049472;28;20021;-67
2021/07/17 08:35:16;;;;;;;52.97;26.33;;;;;;;19.11;85.91;100282.88;5050640;28;20039;-67
2021/07/17 08:37:41;;;;;;;47.67;24.85;;;;;;;19.11;85.43;100265.03;5048857;28;20040;-67
2021/07/17 08:40:07;;;;;;;52.75;23.67;;;;;;;19.11;84.81;100269.53;5059879;28;20119;-67
2021/07/17 08:42:36;;;;;;;53.38;25.38;;;;;;;19.05;85.91;100269.69;5056141;28;20025;-67
2021/07/17 08:45:04;;;;;;;61.70;25.23;;;;;;;19.21;85.96;100268.34;5064722;28;20056;-67
2021/07/17 08:47:38;;;;;;;55.25;26.98;;;;;;;19.20;85.94;100263.91;5064539;28;20013;-66
2021/07/17 08:50:06;;;;;;;53.97;26.45;;;;;;;19.22;85.66;100278.97;5061643;28;20052;-66
2021/07/17 08:52:33;;;;;;;45.10;24.08;;;;;;;19.18;85.18;100279.09;5061704;28;20013;-66
2021/07/17 08:55:04;;;;;;;49.25;22.80;;;;;;;19.25;83.66;100253.97;5060119;28;20021;-66
2021/07/17 08:57:41;;;;;;;37.05;22.15;;;;;;;19.46;82.07;100261.41;5056252;28;20044;-66
2021/07/17 09:00:09;;;;;;;34.33;20.13;;;;;;;19.62;82.96;100257.38;5060717;28;20048;-66
2021/07/17 09:02:39;;;;;;;42.45;20.15;;;;;;;19.84;81.54;100258.44;5059941;28;20024;-66
2021/07/17 09:05:13;;;;;;;39.90;19.17;;;;;;;19.97;81.70;100259.81;5055895;28;20324;-66
2021/07/17 09:07:39;;;;;;;38.30;21.05;;;;;;;19.97;81.22;100246.47;5059972;28;20236;-66
2021/07/17 09:10:34;;;;;;;35.85;19.30;;;;;;;20.01;80.67;100255.25;5061286;28;20027;-66
2021/07/17 09:13:07;;;;;;;36.72;18.33;;;;;;;19.83;81.32;100246.00;5060238;28;20013;-66
2021/07/17 09:15:33;;;;;;;37.22;18.92;;;;;;;19.81;81.71;100239.84;5052015;28;20088;-66
2021/07/17 09:17:59;;;;;;;35.67;19.55;;;;;;;19.85;81.24;100257.53;5049280;28;20370;-66
2021/07/17 09:20:24;;;;;;;37.97;16.85;;;;;;;19.77;81.35;100243.50;5055443;28;20025;-66
2021/07/17 09:22:57;;;;;;;34.35;19.08;;;;;;;19.66;82.07;100226.97;5046887;28;20213;-67
2021/07/17 09:25:23;;;;;;;33.97;18.08;;;;;;;19.73;81.97;100212.47;5059987;28;20047;-67
2021/07/17 09:27:49;;;;;;;38.13;18.63;;;;;;;19.62;81.72;100214.63;5054103;28;20313;-67
2021/07/17 09:30:26;;;;;;;30.23;16.38;;;;;;;19.47;81.43;100191.03;5050089;28;20029;-66
2021/07/17 09:33:04;;;;;;;34.40;16.75;;;;;;;19.51;82.11;100195.38;5050300;28;20021;-66
2021/07/17 09:35:29;;;;;;;34.13;18.27;;;;;;;19.72;82.12;100205.41;5048990;28;20021;-66
2021/07/17 09:37:56;;;;;;;26.73;15.63;;;;;;;19.84;80.33;100194.28;5048139;28;20033;-66
2021/07/17 09:40:25;;;;;;;29.98;16.52;;;;;;;19.85;81.02;100200.53;5049110;28;20024;-66
2021/07/17 09:42:51;;;;;;;27.60;15.88;;;;;;;19.82;81.02;100204.19;5053408;28;20021;-66
2021/07/17 09:45:33;;;;;;;35.97;17.38;;;;;;;19.68;80.14;100190.34;5057546;28;20311;-66
2021/07/17 09:47:59;;;;;;;30.05;16.35;;;;;;;19.67;81.20;100191.28;5058423;28;20036;-66
2021/07/17 09:50:32;;;;;;;35.60;18.23;;;;;;;19.50;80.87;100188.28;5054344;28;20025;-66
2021/07/17 09:52:59;;;;;;;31.02;17.40;;;;;;;19.58;81.40;100178.22;5052275;28;20027;-66
2021/07/17 09:55:24;;;;;;;29.15;17.15;;;;;;;19.82;82.05;100184.59;5058066;28;20371;-66
2021/07/17 09:57:50;;;;;;;30.67;17.10;;;;;;;20.01;81.45;100175.94;5062404;28;20024;-66
2021/07/17 10:00:23;;;;;;;31.35;17.75;;;;;;;20.06;79.65;100173.97;5064018;28;20033;-67
2021/07/17 10:02:49;;;;;;;29.67;16.13;;;;;;;20.20;79.84;100177.09;5059790;28;20025;-67
2021/07/17 10:05:16;;;;;;;28.50;18.20;;;;;;;20.23;80.27;100171.66;5055541;28;20216;-67
2021/07/17 10:07:42;;;;;;;28.67;16.15;;;;;;;20.26;79.39;100170.66;5047624;28;20033;-67
2021/07/17 10:10:08;;;;;;;34.15;16.05;;;;;;;20.28;79.57;100153.63;5049921;28;20040;-67
2021/07/17 10:12:40;;;;;;;31.27;17.35;;;;;;;20.28;80.56;100152.78;5049105;28;20063;-67
2021/07/17 10:15:09;;;;;;;31.90;16.73;;;;;;;20.29;79.90;100150.06;5054762;28;20013;-66
2021/07/17 10:17:42;;;;;;;32.72;16.33;;;;;;;20.46;78.63;100154.78;5048979;28;20358;-66
2021/07/17 10:20:13;;;;;;;31.98;17.00;;;;;;;20.41;78.81;100152.28;5058975;28;20271;-66
2021/07/17 10:22:39;;;;;;;30.48;17.80;;;;;;;20.27;78.29;100162.59;5061364;28;20181;-66
2021/07/17 10:25:08;;;;;;;28.65;16.73;;;;;;;20.25;78.44;100148.38;5050943;28;20025;-66
2021/07/17 10:27:35;;;;;;;26.23;15.90;;;;;;;20.43;79.12;100147.75;5050324;28;20025;-66
2021/07/17 10:30:08;;;;;;;31.77;17.73;;;;;;;20.68;79.45;100154.00;5055845;28;20025;-66
2021/07/17 10:32:33;;;;;;;31.52;15.40;;;;;;;20.61;75.80;100144.44;5062759;28;20240;-66
2021/07/17 10:34:59;;;;;;;28.75;14.95;;;;;;;20.61;78.00;100136.41;5056982;28;20056;-66
2021/07/17 10:37:31;;;;;;;25.73;14.02;;;;;;;20.77;77.34;100145.63;5053236;28;20027;-66
2021/07/17 10:40:08;;;;;;;24.60;15.10;;;;;;;20.73;77.00;100135.94;5061654;28;20225;-66
2021/07/17 10:42:35;;;;;;;23.65;14.57;;;;;;;20.44;77.62;100122.75;5059935;28;20032;-66
2021/07/17 10:45:01;;;;;;;22.95;13.93;;;;;;;20.38;78.13;100125.63;5059615;28;20021;-66
2021/07/17 10:47:37;;;;;;;29.80;15.48;;;;;;;20.45;77.47;100124.50;5056363;28;20031;-66
2021/07/17 10:50:03;;;;;;;23.10;14.10;;;;;;;20.18;78.83;100120.13;5047820;28;20080;-67
2021/07/17 10:52:40;;;;;;;34.80;16.08;;;;;;;20.21;78.90;100103.97;5048798;28;20080;-67
2021/07/17 10:55:24;;;;;;;25.70;16.38;;;;;;;20.14;78.93;100102.44;5059377;28;20033;-67
2021/07/17 10:57:50;;;;;;;21.92;14.50;;;;;;;20.28;79.69;100104.63;5060713;28;20074;-67
2021/07/17 11:00:41;;;;;;;26.63;15.07;;;;;;;20.37;79.62;100099.81;5055862;28;20323;-67
2021/07/17 11:03:28;;;;;;;23.08;14.75;;;;;;;20.32;79.77;100091.09;5056624;28;20032;-67
2021/07/17 11:05:54;;;;;;;30.88;16.40;;;;;;;20.13;80.61;100073.97;5054771;28;20093;-67
2021/07/17 11:08:31;;;;;;;23.40;15.90;;;;;;;20.13;80.16;100073.97;5053311;28;20037;-67
2021/07/17 11:10:57;;;;;;;26.02;14.75;;;;;;;20.33;80.13;100075.91;5053415;28;20270;-67